Time;durP1;ratioP1;P1;durP2;ratioP2;P2;SDS_P1;SDS_P2;PMS_P1;PMS_P2;Temp;Humidity;BMP_temperature;BMP_pressure;BME280_temperature;BME280_humidity;BME280_pressure;Samples;Min_cycle;Max_cycle;Signal;HPM_P1;HPM_P2
2022/07/29 00:00:17;;;;;;;7.43;5.00;;;;;;;25.86;51.14;100700.30;124347;1099;102255;-78
2022/07/29 00:03:06;;;;;;;11.87;5.13;;;;;;;25.80;51.54;100702.23;124276;1099;104316;-78
2022/07/29 00:05:39;;;;;;;8.67;4.83;;;;;;;25.76;50.98;100699.65;124237;1099;104408;-78
2022/07/29 00:08:11;;;;;;;9.87;4.93;;;;;;;25.72;50.97;100698.82;124313;1099;104233;-80
2022/07/29 00:10:43;;;;;;;7.80;4.57;;;;;;;25.69;51.38;100692.64;124402;1099;104409;-82
2022/07/29 00:13:14;;;;;;;7.77;4.30;;;;;;;25.68;51.73;100702.52;124378;1099;104457;-78
2022/07/29 00:15:46;;;;;;;8.40;4.80;;;;;;;25.68;51.33;100699.83;124825;1099;104079;-79
2022/07/29 00:18:18;;;;;;;10.45;4.50;;;;;;;25.67;51.61;100703.42;124949;1099;104245;-79
2022/07/29 00:20:49;;;;;;;9.70;4.77;;;;;;;25.66;51.50;100693.59;124779;1099;104680;-78
2022/07/29 00:23:21;;;;;;;8.57;4.63;;;;;;;25.66;51.76;100696.27;124896;1099;104313;-78
2022/07/29 00:25:52;;;;;;;7.70;4.57;;;;;;;25.65;51.77;100698.09;124842;1099;104229;-78
2022/07/29 00:28:27;;;;;;;7.93;4.53;;;;;;;25.62;52.02;100700.85;124906;1099;102503;-79
2022/07/29 00:31:00;;;;;;;5.93;4.23;;;;;;;25.63;51.78;100701.72;124889;1099;104160;-79
2022/07/29 00:36:45;;;;;;;9.83;4.53;;;;;;;25.62;51.63;100700.85;125632;1099;102193;-78
2022/07/29 00:39:24;;;;;;;5.07;4.13;;;;;;;25.63;52.00;100699.03;125659;1099;102416;-77
2022/07/29 00:41:56;;;;;;;7.93;4.23;;;;;;;25.65;51.94;100707.97;124813;1099;104233;-78
2022/07/29 00:44:29;;;;;;;8.30;4.70;;;;;;;25.65;52.03;100699.91;124902;1099;104195;-79
2022/07/29 00:47:08;;;;;;;7.63;4.37;;;;;;;25.65;52.07;100698.09;124814;1099;104229;-79
2022/07/29 00:49:45;;;;;;;10.00;4.50;;;;;;;25.58;52.20;100695.58;124871;1099;104160;-78
2022/07/29 00:52:17;;;;;;;8.03;4.47;;;;;;;25.55;52.23;100691.16;124892;1099;104160;-78
2022/07/29 00:54:59;;;;;;;6.10;4.20;;;;;;;25.52;51.89;100693.91;124872;1099;102422;-78
2022/07/29 00:57:38;;;;;;;7.80;4.70;;;;;;;25.50;52.58;100686.83;125010;1099;104269;-79
2022/07/29 01:00:17;;;;;;;7.33;4.63;;;;;;;25.45;52.02;100694.99;124811;1099;104184;-79
2022/07/29 01:02:57;;;;;;;6.60;4.40;;;;;;;25.44;52.48;100694.09;124844;1099;104287;-78
2022/07/29 01:05:33;;;;;;;10.05;5.05;;;;;;;25.45;52.17;100682.44;125064;1099;104310;-79
2022/07/29 01:08:06;;;;;;;6.13;4.37;;;;;;;25.47;52.67;100687.77;124389;1102;104419;-78
2022/07/29 01:10:41;;;;;;;7.73;4.33;;;;;;;25.46;52.16;100677.93;124790;1099;104194;-78
2022/07/29 01:13:16;;;;;;;7.23;4.40;;;;;;;25.39;52.52;100679.89;124915;1099;104245;-78
2022/07/29 01:15:53;;;;;;;6.40;4.47;;;;;;;25.40;52.75;100683.45;124871;1099;104162;-78
2022/07/29 01:18:31;;;;;;;6.93;4.80;;;;;;;25.37;52.86;100679.05;124848;1099;104195;-78
2022/07/29 01:21:20;;;;;;;7.80;4.50;;;;;;;25.40;52.89;100683.45;124828;1098;104163;-78
2022/07/29 01:24:18;;;;;;;7.03;4.50;;;;;;;25.40;53.07;100687.04;124878;1099;104232;-78
2022/07/29 01:26:53;;;;;;;8.97;4.60;;;;;;;25.39;52.44;100679.89;124772;1099;102332;-79
2022/07/29 01:29:32;;;;;;;6.83;4.40;;;;;;;25.38;52.59;100678.11;124772;1099;102186;-79
2022/07/29 01:32:07;;;;;;;8.77;4.70;;;;;;;25.37;52.53;100680.83;124771;1099;104194;-79
2022/07/29 01:34:49;;;;;;;7.40;4.63;;;;;;;25.35;52.70;100680.86;124837;1099;104602;-78
2022/07/29 01:37:25;;;;;;;6.67;4.20;;;;;;;25.33;52.77;100684.52;124871;1099;104252;-79
2022/07/29 01:40:00;;;;;;;6.53;4.10;;;;;;;25.31;52.96;100684.56;124854;1099;104353;-78
2022/07/29 01:42:41;;;;;;;6.40;4.40;;;;;;;25.33;52.72;100693.45;124805;1099;104264;-78
2022/07/29 01:45:19;;;;;;;7.80;4.50;;;;;;;25.30;53.12;100690.84;124808;1098;103354;-78
2022/07/29 01:48:01;;;;;;;8.57;4.40;;;;;;;25.29;53.33;100689.05;124800;1099;102784;-77
2022/07/29 01:50:39;;;;;;;7.87;4.63;;;;;;;25.28;53.41;100692.64;124857;1099;104191;-79
2022/07/29 01:53:14;;;;;;;10.30;4.57;;;;;;;25.22;53.43;100687.41;124843;1099;104217;-78
2022/07/29 01:55:49;;;;;;;8.10;4.67;;;;;;;25.19;53.39;100682.98;124828;1099;104182;-78
2022/07/29 01:58:22;;;;;;;8.93;5.00;;;;;;;25.12;53.78;100692.98;124830;1099;104335;-78
2022/07/29 02:00:55;;;;;;;7.75;4.30;;;;;;;25.12;53.27;100692.98;124821;1099;104188;-79
2022/07/29 02:03:28;;;;;;;9.10;4.73;;;;;;;25.09;53.92;100697.54;125728;1099;104217;-78
2022/07/29 02:06:03;;;;;;;7.50;4.53;;;;;;;25.04;53.76;100692.27;125726;1098;103364;-78
2022/07/29 02:08:37;;;;;;;6.63;4.50;;;;;;;25.02;53.73;100696.77;124825;1098;104246;-78
2022/07/29 02:11:10;;;;;;;7.37;4.47;;;;;;;25.01;53.92;100689.65;124788;1099;104319;-78
2022/07/29 02:13:43;;;;;;;8.20;5.00;;;;;;;24.99;53.89;100690.59;124894;1099;103193;-78
2022/07/29 02:16:13;;;;;;;;;;;;;;;25.00;53.83;100700.42;124871;1099;104232;-78
2022/07/29 02:18:50;;;;;;;5.40;3.90;;;;;;;24.95;54.23;100711.25;124897;1099;104202;-78
2022/07/29 02:21:25;;;;;;;12.47;4.97;;;;;;;24.94;54.07;100706.78;124827;1099;102769;-78
2022/07/29 02:24:00;;;;;;;8.10;4.40;;;;;;;24.95;53.92;100697.83;124941;1099;104163;-79
2022/07/29 02:26:33;;;;;;;9.47;4.30;;;;;;;24.95;53.58;100700.52;124853;1099;104073;-78
2022/07/29 02:29:09;;;;;;;8.10;4.10;;;;;;;24.96;53.71;100687.97;124861;1098;104233;-80
2022/07/29 02:31:47;;;;;;;7.40;4.13;;;;;;;24.98;53.69;100691.48;124716;1099;104287;-79
2022/07/29 02:34:22;;;;;;;21.87;6.50;;;;;;;24.94;53.60;100693.36;124814;1099;104169;-78
2022/07/29 02:36:53;;;;;;;;;;;;;;;24.93;53.31;100686.22;124891;1099;102887;-78
2022/07/29 02:39:26;;;;;;;16.27;4.80;;;;;;;24.97;53.67;100687.06;124846;1099;102036;-78
2022/07/29 02:42:00;;;;;;;;;;;;;;;24.98;53.15;100686.12;124959;1099;104235;-79
2022/07/29 02:44:34;;;;;;;7.93;4.20;;;;;;;25.01;53.11;100694.11;124947;1099;102445;-79
2022/07/29 02:47:13;;;;;;;6.90;4.17;;;;;;;24.99;53.25;100704.01;124918;1099;104721;-79
2022/07/29 02:49:56;;;;;;;8.15;4.10;;;;;;;24.93;53.33;100702.32;124867;1099;104166;-79
2022/07/29 02:52:32;;;;;;;10.23;4.37;;;;;;;24.94;52.94;100698.73;124855;1099;108246;-78
2022/07/29 02:55:11;;;;;;;9.57;3.93;;;;;;;24.94;53.18;100699.61;124783;1099;104214;-77
2022/07/29 02:57:47;;;;;;;7.43;4.07;;;;;;;24.95;53.26;100703.20;124787;1099;102762;-79
2022/07/29 03:00:21;;;;;;;9.23;3.90;;;;;;;24.92;53.01;100708.63;124808;1099;104320;-77
2022/07/29 03:02:56;;;;;;;6.43;4.03;;;;;;;24.95;52.97;100713.94;124815;1098;117793;-78
2022/07/29 03:05:28;;;;;;;7.23;4.10;;;;;;;24.97;52.80;100709.41;124851;1099;104241;-78
2022/07/29 03:08:02;;;;;;;6.70;3.77;;;;;;;24.98;52.86;100710.28;124791;1099;104166;-79
2022/07/29 03:10:35;;;;;;;7.30;3.70;;;;;;;25.00;52.95;100705.78;124988;1099;104153;-78
2022/07/29 03:13:08;;;;;;;6.33;3.60;;;;;;;25.02;52.55;100701.26;124807;1099;104188;-77
2022/07/29 03:15:41;;;;;;;6.20;3.80;;;;;;;25.01;52.73;100697.70;124863;1099;104157;-78
2022/07/29 03:18:13;;;;;;;6.13;3.50;;;;;;;25.01;52.39;100713.81;124777;1099;102921;-78
2022/07/29 03:20:45;;;;;;;7.13;3.50;;;;;;;25.03;52.68;100700.36;124779;1099;104211;-78
2022/07/29 03:23:22;;;;;;;9.97;3.67;;;;;;;25.04;52.52;100712.84;124750;1099;104201;-78
2022/07/29 03:25:54;;;;;;;4.83;3.57;;;;;;;25.04;52.21;100705.69;124832;1099;102303;-77
2022/07/29 03:28:27;;;;;;;6.60;3.40;;;;;;;25.05;51.88;100714.62;124821;1099;104195;-78
2022/07/29 03:30:58;;;;;;;7.60;3.70;;;;;;;25.05;51.84;100706.56;124403;1099;104335;-78
2022/07/29 03:33:30;;;;;;;7.07;3.40;;;;;;;25.04;52.00;100716.43;124775;1099;104165;-78
2022/07/29 03:36:02;;;;;;;11.20;4.50;;;;;;;25.04;51.95;100716.43;124826;1099;104169;-77
2022/07/29 03:38:37;;;;;;;12.80;3.60;;;;;;;25.01;52.03;100720.95;124833;1099;104234;-78
2022/07/29 03:41:12;;;;;;;6.95;3.50;;;;;;;24.95;52.08;100735.41;124861;1099;104676;-78
2022/07/29 03:43:46;;;;;;;9.30;3.63;;;;;;;24.84;52.52;100743.67;124795;1098;107014;-77
2022/07/29 03:46:21;;;;;;;6.67;3.83;;;;;;;24.74;52.89;100744.75;124883;1099;102811;-78
2022/07/29 03:48:59;;;;;;;8.70;3.70;;;;;;;24.65;53.04;100761.92;124770;1099;104232;-77
2022/07/29 03:51:31;;;;;;;7.37;3.60;;;;;;;24.60;53.31;100760.23;124821;1097;104209;-78
2022/07/29 03:54:04;;;;;;;6.30;3.40;;;;;;;24.31;55.36;100762.48;124791;1099;118904;-78
2022/07/29 03:56:40;;;;;;;9.13;3.40;;;;;;;24.02;55.22;100757.59;124779;1098;104163;-80
2022/07/29 03:59:14;;;;;;;6.07;3.70;;;;;;;23.82;55.85;100758.73;124917;1099;101845;-79
2022/07/29 04:01:46;;;;;;;7.37;3.80;;;;;;;23.67;56.01;100757.19;124926;1099;102790;-78
2022/07/29 04:04:18;;;;;;;13.85;4.67;;;;;;;23.55;55.86;100764.52;124781;1099;102832;-79
2022/07/29 04:06:50;;;;;;;9.15;4.10;;;;;;;23.36;56.91;100769.20;124937;1099;102622;-78
2022/07/29 04:09:22;;;;;;;9.97;4.40;;;;;;;23.21;57.42;100765.83;124817;1099;104206;-78
2022/07/29 04:11:54;;;;;;;7.23;3.87;;;;;;;23.11;58.04;100769.53;124945;1099;101867;-78
2022/07/29 04:14:26;;;;;;;9.30;3.70;;;;;;;22.98;57.86;100763.38;124969;1099;104169;-80
2022/07/29 04:16:58;;;;;;;5.33;3.47;;;;;;;22.80;58.23;100765.36;125828;1099;104166;-79
2022/07/29 04:19:37;;;;;;;7.70;3.87;;;;;;;22.67;58.85;100774.41;125758;1098;104967;-79
2022/07/29 04:22:17;;;;;;;8.73;3.80;;;;;;;22.60;59.02;100772.70;125715;1098;104165;-79
2022/07/29 04:25:03;;;;;;;7.97;3.90;;;;;;;22.50;59.64;100771.92;125726;1099;104165;-81
2022/07/29 04:27:36;;;;;;;7.97;4.00;;;;;;;22.44;59.17;100772.84;125880;1099;102683;-78
2022/07/29 04:30:26;;;;;;;11.43;4.20;;;;;;;22.41;60.54;100777.34;124490;1099;104309;-78
2022/07/29 04:33:01;;;;;;;11.00;4.43;;;;;;;22.40;60.08;100773.77;125039;1099;104201;-80
2022/07/29 04:35:34;;;;;;;8.70;4.10;;;;;;;22.35;60.44;100778.28;125024;1099;104163;-79
2022/07/29 04:38:18;;;;;;;9.17;3.80;;;;;;;22.35;61.34;100777.40;125766;1099;102516;-80
2022/07/29 04:41:00;;;;;;;7.77;4.17;;;;;;;22.34;61.19;100775.61;124914;1099;104156;-80
2022/07/29 04:43:32;;;;;;;10.35;4.60;;;;;;;22.35;61.17;100782.75;124954;1099;104232;-79
2022/07/29 04:46:16;;;;;;;10.03;4.53;;;;;;;22.37;61.67;100781.81;124899;1099;102119;-80
2022/07/29 04:49:10;;;;;;;;;;;;;;;;;;;;;
2022/07/29 04:51:50;;;;;;;7.67;4.50;;;;;;;22.40;61.87;100779.11;125763;1099;104206;-81
2022/07/29 04:54:23;;;;;;;;;;;;;;;22.45;61.27;100789.77;125702;1099;104162;-82
2022/07/29 04:56:55;;;;;;;8.57;4.30;;;;;;;22.53;62.34;100792.38;124928;1099;103617;-79
2022/07/29 04:59:27;;;;;;;9.43;4.20;;;;;;;22.58;62.40;100798.59;125052;1099;104156;-79
2022/07/29 05:01:59;;;;;;;13.17;5.63;;;;;;;22.63;62.41;100803.90;124884;1099;104085;-78
2022/07/29 05:07:36;;;;;;;9.37;4.93;;;;;;;22.60;63.02;100824.40;125680;1099;103193;-79
2022/07/29 05:10:10;;;;;;;8.77;4.90;;;;;;;22.54;63.19;100831.59;125706;1099;104073;-79
2022/07/29 05:12:57;;;;;;;8.47;4.90;;;;;;;22.51;62.81;100843.19;125821;1099;104275;-79
2022/07/29 05:15:31;;;;;;;8.37;4.83;;;;;;;22.53;63.51;100851.20;125296;1099;104236;-79
2022/07/29 05:18:13;;;;;;;10.77;4.93;;;;;;;22.51;63.26;100853.89;125710;1099;104303;-79
2022/07/29 05:21:03;;;;;;;10.90;4.83;;;;;;;22.51;63.59;100869.94;125201;1102;104214;-80
2022/07/29 05:23:44;;;;;;;13.57;4.90;;;;;;;22.47;63.44;100877.98;125119;1102;104157;-79
2022/07/29 05:26:35;;;;;;;11.95;4.83;;;;;;;22.43;64.13;100878.02;125041;1102;104288;-78
2022/07/29 05:29:13;;;;;;;12.03;4.40;;;;;;;22.36;64.15;100889.67;125016;1102;104224;-78
2022/07/29 05:31:51;;;;;;;9.37;4.10;;;;;;;22.26;64.32;100872.74;124985;1102;104412;-76
2022/07/29 05:34:27;;;;;;;11.37;4.07;;;;;;;22.30;64.36;100891.44;124550;1101;104252;-77
2022/07/29 05:37:17;;;;;;;8.20;4.10;;;;;;;22.23;64.87;100879.91;125054;1102;104232;-78
2022/07/29 05:39:51;;;;;;;8.20;3.90;;;;;;;22.20;64.67;100877.25;124924;1099;104191;-78
2022/07/29 05:42:23;;;;;;;12.25;4.37;;;;;;;22.16;63.96;100873.72;124757;1099;102358;-76
2022/07/29 05:44:58;;;;;;;15.03;4.90;;;;;;;22.12;64.99;100866.61;125113;1099;102552;-78
2022/07/29 05:47:32;;;;;;;14.23;5.10;;;;;;;22.12;65.02;100861.27;126091;1098;104225;-76
2022/07/29 05:54:02;;;;;;;10.93;4.07;;;;;;;22.01;65.32;100845.30;127372;1098;101942;-76
2022/07/29 05:57:05;;;;;;;11.93;4.50;;;;;;;21.87;65.20;100836.48;125582;1102;107603;-76
2022/07/29 05:59:46;;;;;;;11.67;4.70;;;;;;;21.80;65.97;100843.65;125021;1103;104179;-76
2022/07/29 06:02:32;;;;;;;14.27;4.97;;;;;;;21.79;65.75;100849.88;125037;1102;104274;-77
2022/07/29 06:05:28;;;;;;;14.90;5.00;;;;;;;21.79;66.11;100855.22;125072;1102;104227;-77
2022/07/29 06:08:10;;;;;;;11.30;4.90;;;;;;;21.78;66.20;100853.42;125090;1102;104267;-77
2022/07/29 06:10:52;;;;;;;14.17;5.40;;;;;;;21.82;66.94;100857.87;124962;1102;104270;-76
2022/07/29 06:13:35;;;;;;;17.07;5.67;;;;;;;21.81;66.43;100858.76;124332;1102;104302;-77
2022/07/29 06:16:15;;;;;;;16.93;6.57;;;;;;;21.82;67.21;100855.20;124318;1102;104329;-76
2022/07/29 06:25:23;;;;;;;;;;;;;;;;;;;;;
2022/07/29 06:34:58;;;;;;;15.37;5.80;;;;;;;22.00;67.96;100839.95;126772;1098;101879;-77
2022/07/29 06:37:51;;;;;;;14.60;6.07;;;;;;;22.05;68.36;100836.38;126068;1099;103914;-77
2022/07/29 06:41:05;;;;;;;15.60;6.10;;;;;;;22.04;68.71;100833.71;124574;1102;104168;-77
2022/07/29 06:43:45;;;;;;;14.73;6.40;;;;;;;21.97;68.71;100829.29;125177;1102;102309;-77
2022/07/29 06:46:23;;;;;;;13.70;6.17;;;;;;;21.98;68.92;100821.27;125117;1102;104398;-76
2022/07/29 06:49:27;;;;;;;;;;;;;;;;;;;;;
2022/07/29 06:58:20;;;;;;;19.10;7.40;;;;;;;22.14;69.23;100830.06;125710;1102;102343;-77
2022/07/29 07:01:50;;;;;;;;;;;;;;;;;;;;;
2022/07/29 07:04:41;;;;;;;22.37;8.50;;;;;;;22.18;69.26;100817.59;126083;1102;101837;-77
2022/07/29 07:07:18;;;;;;;20.43;7.83;;;;;;;22.19;69.44;100828.27;125912;1102;104482;-78
2022/07/29 07:10:24;;;;;;;19.60;8.33;;;;;;;22.24;69.80;100823.77;125889;1102;101885;-78
2022/07/29 07:14:27;;;;;;;;;;;;;;;;;;;;;
2022/07/29 07:34:03;;;;;;;;;;;;;;;;;;;;;
2022/07/29 07:37:08;;;;;;;17.63;7.03;;;;;;;22.23;69.95;100834.47;124956;1102;103284;-78
2022/07/29 07:40:09;;;;;;;17.80;7.73;;;;;;;22.28;69.41;100839.78;124850;1102;104217;-78
2022/07/29 07:43:28;;;;;;;;;;;;;;;;;;;;;
2022/07/29 07:47:01;;;;;;;;;;;;;;;;;;;;;
2022/07/29 07:50:19;;;;;;;;;;;;;;;;;;;;;
2022/07/29 07:53:49;;;;;;;19.13;7.50;;;;;;;22.42;69.83;100851.28;125103;1105;102539;-79
2022/07/29 07:57:00;;;;;;;;;;;;;;;;;;;;;
2022/07/29 08:03:47;;;;;;;11.63;5.70;;;;;;;22.64;69.86;100860.05;124771;1109;104175;-80
2022/07/29 08:11:01;;;;;;;11.90;4.70;;;;;;;22.78;69.56;100862.58;125319;1109;102360;-80
2022/07/29 08:13:44;;;;;;;12.63;5.00;;;;;;;22.88;69.77;100858.05;125092;1109;104210;-79
2022/07/29 08:16:46;;;;;;;;;;;;;;;;;;;;;
2022/07/29 08:19:16;;;;;;;11.53;4.60;;;;;;;23.06;70.07;100863.22;125096;1108;101975;-78
2022/07/29 08:22:08;;;;;;;;;;;;;;;;;;;;;
2022/07/29 08:28:28;;;;;;;12.60;6.00;;;;;;;23.33;69.21;100869.22;124421;1109;104309;-79
2022/07/29 08:31:40;;;;;;;15.10;6.87;;;;;;;23.47;69.29;100859.23;124524;1109;104198;-79
2022/07/29 08:34:30;;;;;;;15.50;7.17;;;;;;;23.64;69.50;100864.37;125148;1108;104316;-79
2022/07/29 08:37:29;;;;;;;14.20;7.43;;;;;;;23.77;69.06;100859.73;124425;1109;104406;-79
2022/07/29 08:40:20;;;;;;;15.30;8.33;;;;;;;23.87;68.72;100857.84;124584;1106;104342;-78
2022/07/29 08:43:15;;;;;;;17.20;7.47;;;;;;;23.89;68.68;100861.41;124792;1105;104179;-79
2022/07/29 08:45:57;;;;;;;13.20;7.20;;;;;;;23.93;68.69;100855.09;124782;1105;104271;-80
2022/07/29 08:48:52;;;;;;;15.57;7.80;;;;;;;23.95;68.42;100852.38;124498;1105;102175;-79
2022/07/29 08:51:29;;;;;;;18.80;7.87;;;;;;;23.93;68.28;100849.72;124766;1104;102181;-79
2022/07/29 08:54:19;;;;;;;12.43;7.10;;;;;;;23.94;68.39;100866.71;124290;1105;102271;-79
2022/07/29 08:56:59;;;;;;;12.50;6.67;;;;;;;23.95;68.13;100871.14;124590;1109;104226;-79
2022/07/29 08:59:41;;;;;;;12.87;6.70;;;;;;;23.92;68.01;100864.05;125088;1108;102759;-79
2022/07/29 09:02:20;;;;;;;15.20;6.90;;;;;;;23.93;68.04;100868.48;125104;1105;102123;-79
2022/07/29 09:04:50;;;;;;;11.80;6.30;;;;;;;24.00;68.10;100867.50;124244;1106;104252;-76
2022/07/29 09:07:30;;;;;;;15.87;6.50;;;;;;;24.05;67.82;100865.64;125462;1104;104182;-79
2022/07/29 09:10:00;;;;;;;13.83;7.73;;;;;;;24.14;68.18;100872.67;124224;1105;104221;-79
2022/07/29 09:12:37;;;;;;;14.73;7.03;;;;;;;24.14;67.64;100872.67;124159;1106;102740;-79
2022/07/29 09:15:15;;;;;;;15.60;7.73;;;;;;;24.13;67.21;100878.05;125708;1103;104135;-79
2022/07/29 09:17:55;;;;;;;14.17;7.20;;;;;;;24.02;66.43;100879.08;125191;1105;104294;-80
2022/07/29 09:24:02;;;;;;;11.63;6.20;;;;;;;24.00;66.94;100874.67;125997;1105;102249;-78
2022/07/29 09:27:03;;;;;;;13.73;7.30;;;;;;;23.96;66.91;100878.28;124968;1102;104351;-79
2022/07/29 09:33:10;;;;;;;15.37;6.93;;;;;;;23.99;66.34;100880.92;124840;1102;103218;-80
2022/07/29 09:36:11;;;;;;;14.97;6.77;;;;;;;23.89;66.41;100864.09;124936;1102;104112;-77
2022/07/29 09:39:12;;;;;;;13.67;6.23;;;;;;;23.93;66.04;100867.61;124856;1105;103322;-81
2022/07/29 09:42:04;;;;;;;10.70;5.37;;;;;;;23.86;66.15;100866.81;124162;1105;103412;-80
2022/07/29 09:45:08;;;;;;;12.70;5.83;;;;;;;23.89;66.22;100872.13;124219;1105;104309;-79
2022/07/29 09:52:10;;;;;;;11.90;5.40;;;;;;;23.92;66.39;100871.19;123766;1108;104255;-79
2022/07/29 09:54:47;;;;;;;10.60;5.17;;;;;;;23.84;66.07;100873.97;123861;1108;104276;-78
2022/07/29 09:57:34;;;;;;;12.37;5.30;;;;;;;23.82;66.04;100876.63;125011;1109;101874;-77
2022/07/29 10:00:19;;;;;;;10.18;5.17;;;;;;;23.84;66.21;100876.64;123622;1109;104331;-76
2022/07/29 10:03:00;;;;;;;10.60;5.47;;;;;;;23.83;65.98;100875.73;123624;1106;104252;-76
2022/07/29 10:05:41;;;;;;;10.70;5.80;;;;;;;23.86;65.97;100874.86;124063;1105;104233;-77
2022/07/29 10:08:34;;;;;;;11.97;5.53;;;;;;;23.91;65.97;100881.03;124439;1109;104262;-78
2022/07/29 10:11:25;;;;;;;;;;;;;;;;;;;;;
2022/07/29 10:14:01;;;;;;;11.73;5.73;;;;;;;24.12;65.86;100878.95;124452;1105;104191;-77
2022/07/29 10:16:53;;;;;;;12.87;6.17;;;;;;;24.23;66.12;100879.67;123867;1109;105422;-77
2022/07/29 10:19:25;;;;;;;12.07;5.70;;;;;;;24.29;65.94;100881.39;124149;1105;102139;-77
2022/07/29 10:22:05;;;;;;;12.10;5.93;;;;;;;24.30;65.56;100886.73;123777;1108;104205;-76
2022/07/29 10:24:37;;;;;;;10.37;6.23;;;;;;;24.35;65.90;100886.66;125025;1105;102781;-77
2022/07/29 10:27:13;;;;;;;17.35;6.03;;;;;;;24.35;65.90;100886.66;124133;1105;103037;-77
2022/07/29 10:29:42;;;;;;;13.63;6.03;;;;;;;24.36;65.92;100892.00;124125;1102;103012;-79
2022/07/29 10:32:49;;;;;;;10.90;6.30;;;;;;;24.36;65.96;100888.44;124409;1102;104270;-79
2022/07/29 10:35:34;;;;;;;12.07;6.10;;;;;;;24.35;66.22;100884.85;124424;1102;104198;-79
2022/07/29 10:38:49;;;;;;;10.93;5.97;;;;;;;24.23;65.54;100885.03;124398;1102;103215;-81
2022/07/29 10:41:53;;;;;;;14.00;6.15;;;;;;;24.10;65.41;100883.45;124863;1105;104188;-80
2022/07/29 10:44:33;;;;;;;9.13;5.80;;;;;;;23.99;65.73;100881.80;124048;1105;104175;-79
2022/07/29 10:47:08;;;;;;;13.03;6.27;;;;;;;24.02;65.82;100883.56;124679;1105;104402;-79
2022/07/29 10:50:18;;;;;;;13.30;6.17;;;;;;;24.05;66.01;100878.16;124757;1105;103530;-79
2022/07/29 10:53:12;;;;;;;15.60;6.43;;;;;;;24.06;66.20;100869.22;124775;1105;104395;-79
2022/07/29 10:55:48;;;;;;;12.07;6.10;;;;;;;24.05;66.17;100873.67;124723;1105;104239;-79
2022/07/29 10:58:31;;;;;;;11.80;6.20;;;;;;;24.10;66.29;100872.73;124740;1105;104245;-79
2022/07/29 11:01:26;;;;;;;;;;;;;;;24.11;66.49;100878.08;116731;1105;10001472;-79
2022/07/29 11:04:05;;;;;;;14.27;6.00;;;;;;;24.05;66.29;100892.44;124710;1105;103340;-78
2022/07/29 11:10:32;;;;;;;11.30;6.67;;;;;;;24.03;66.76;100880.86;124171;1106;102823;-79
2022/07/29 11:13:57;;;;;;;11.87;6.10;;;;;;;24.05;66.56;100878.16;124849;1103;104172;-79
2022/07/29 11:17:29;;;;;;;;;;;;;;;;;;;;;
2022/07/29 11:21:00;;;;;;;;;;;;;;;;;;;;;
2022/07/29 11:23:50;;;;;;;11.93;6.27;;;;;;;24.10;66.80;100887.02;124511;1106;103355;-78
2022/07/29 11:27:06;;;;;;;8.60;6.00;;;;;;;24.11;66.96;100882.56;124752;1105;102159;-78
2022/07/29 11:33:50;;;;;;;11.53;5.93;;;;;;;24.05;67.33;100879.03;124432;1106;102359;-79
2022/07/29 11:37:26;;;;;;;13.33;7.00;;;;;;;24.04;67.35;100871.92;124578;1105;104440;-79
2022/07/29 11:40:54;;;;;;;12.20;6.33;;;;;;;24.03;67.41;100867.46;124087;1105;104265;-79
2022/07/29 11:44:35;;;;;;;15.53;6.90;;;;;;;23.97;67.31;100875.59;124920;1103;103010;-79
2022/07/29 11:47:57;;;;;;;;;;;;;;;;;;;;;
2022/07/29 11:51:19;;;;;;;14.97;7.37;;;;;;;23.80;67.56;100877.58;124679;1106;104287;-78
2022/07/29 11:54:28;;;;;;;16.03;7.67;;;;;;;23.76;67.88;100875.84;125026;1109;104500;-78
2022/07/29 11:57:10;;;;;;;17.40;8.30;;;;;;;23.77;67.87;100877.62;124447;1109;105417;-78
2022/07/29 12:00:12;;;;;;;;;;;;;;;;;;;;;
2022/07/29 12:06:21;;;;;;;15.23;8.10;;;;;;;23.77;67.95;100870.45;124346;1109;102786;-80
2022/07/29 12:08:56;;;;;;;14.45;8.65;;;;;;;23.80;68.17;100869.55;124447;1109;102018;-80
2022/07/29 12:11:39;;;;;;;16.10;9.05;;;;;;;23.80;68.18;100864.19;124531;1109;104233;-79
2022/07/29 12:14:35;;;;;;;17.43;9.47;;;;;;;23.84;68.56;100865.92;124572;1109;104516;-79
2022/07/29 12:17:25;;;;;;;17.73;8.57;;;;;;;23.82;68.44;100863.23;124518;1108;102002;-80
2022/07/29 12:20:04;;;;;;;14.23;8.20;;;;;;;23.85;68.49;100865.03;124775;1105;104408;-80
2022/07/29 12:23:05;;;;;;;17.33;8.40;;;;;;;23.87;68.53;100863.20;124821;1105;104404;-80
2022/07/29 12:26:05;;;;;;;15.57;8.20;;;;;;;23.94;68.73;100870.27;124758;1105;102143;-79
2022/07/29 12:28:42;;;;;;;17.00;8.90;;;;;;;24.01;68.23;100860.34;124940;1102;104351;-79
2022/07/29 12:31:21;;;;;;;;;;;;;;;24.09;68.19;100852.19;124873;1102;104262;-78
2022/07/29 12:34:12;;;;;;;15.33;8.97;;;;;;;24.16;68.27;100851.20;125601;1102;104172;-79
2022/07/29 12:36:55;;;;;;;17.33;9.27;;;;;;;24.28;68.36;100851.02;124909;1102;102583;-79
2022/07/29 12:39:59;;;;;;;19.27;9.83;;;;;;;24.40;68.47;100848.14;124934;1102;102095;-80
2022/07/29 12:43:15;;;;;;;16.70;9.57;;;;;;;24.48;68.27;100841.75;124807;1105;104315;-79
2022/07/29 12:45:57;;;;;;;14.93;8.43;;;;;;;24.49;68.39;100841.72;125051;1105;103344;-79
2022/07/29 12:49:02;;;;;;;16.90;8.05;;;;;;;24.52;68.10;100836.31;125153;1105;102797;-80
2022/07/29 12:52:36;;;;;;;17.10;8.60;;;;;;;24.51;67.68;100834.56;124948;1102;104075;-79
2022/07/29 12:55:44;;;;;;;14.17;8.57;;;;;;;24.53;67.84;100822.00;124895;1102;104176;-79
2022/07/29 12:58:44;;;;;;;;;;;;;;;;;;;;;
2022/07/29 13:01:52;;;;;;;;;;;;;;;;;;;;;
2022/07/29 13:04:56;;;;;;;13.37;6.90;;;;;;;24.93;67.68;100813.27;125001;1102;102502;-80
2022/07/29 13:07:57;;;;;;;;;;;;;;;;;;;;;
2022/07/29 13:11:17;;;;;;;;;;;;;;;;;;;;;
2022/07/29 13:18:06;;;;;;;10.20;5.67;;;;;;;25.22;66.82;100790.33;124893;1102;103526;-80
2022/07/29 13:21:01;;;;;;;10.17;6.07;;;;;;;25.21;66.20;100788.58;124776;1105;102054;-79
2022/07/29 13:23:48;;;;;;;;;;;;;;;;;;;;;
2022/07/29 13:26:40;;;;;;;13.30;6.37;;;;;;;25.21;65.50;100787.67;124477;1105;104091;-80
2022/07/29 13:29:57;;;;;;;11.90;6.63;;;;;;;25.23;65.76;100783.17;124874;1105;102388;-79
2022/07/29 13:32:50;;;;;;;11.57;6.40;;;;;;;25.28;65.65;100775.90;124791;1106;104239;-79
2022/07/29 13:36:13;;;;;;;11.80;7.43;;;;;;;25.28;65.13;100773.21;124757;1105;102425;-77
2022/07/29 13:38:48;;;;;;;13.17;7.60;;;;;;;25.23;64.82;100764.38;124499;1108;103305;-78
2022/07/29 13:41:29;;;;;;;17.67;8.30;;;;;;;25.24;64.77;100766.13;124473;1105;104294;-79
2022/07/29 13:44:09;;;;;;;17.57;10.47;;;;;;;25.19;64.70;100760.84;124493;1109;102912;-77
2022/07/29 13:46:43;;;;;;;20.63;10.97;;;;;;;25.22;64.60;100759.91;124505;1106;103158;-80
2022/07/29 13:49:34;;;;;;;18.92;10.78;;;;;;;25.27;65.18;100756.23;124903;1106;104221;-79
2022/07/29 13:52:19;;;;;;;18.47;11.00;;;;;;;25.26;64.56;100750.89;124905;1102;102158;-79
2022/07/29 13:55:00;;;;;;;16.90;10.00;;;;;;;25.25;64.67;100751.80;124251;1103;102910;-78
2022/07/29 13:57:44;;;;;;;18.20;10.50;;;;;;;25.23;64.75;100757.20;124234;1102;102836;-78
2022/07/29 14:00:18;;;;;;;18.17;10.80;;;;;;;25.25;64.74;100749.98;124396;1102;104242;-79
2022/07/29 14:02:48;;;;;;;17.63;9.83;;;;;;;25.25;64.00;100741.92;124999;1102;104163;-78
2022/07/29 14:05:18;;;;;;;18.80;10.73;;;;;;;25.25;64.71;100735.68;125030;1102;102281;-79
2022/07/29 14:07:52;;;;;;;17.77;8.38;;;;;;;25.26;64.31;100742.83;125021;1102;104057;-80
2022/07/29 14:10:23;;;;;;;16.30;8.10;;;;;;;25.32;64.30;100736.45;125091;1102;102151;-78
2022/07/29 14:12:55;;;;;;;21.27;9.30;;;;;;;25.36;64.14;100739.05;125043;1102;104232;-79
2022/07/29 14:15:30;;;;;;;16.80;7.83;;;;;;;25.28;63.01;100730.25;124411;1102;102255;-79
2022/07/29 14:18:01;;;;;;;15.97;8.27;;;;;;;25.28;63.33;100735.61;124449;1102;104288;-78
2022/07/29 14:20:32;;;;;;;17.45;7.85;;;;;;;25.38;63.69;100731.83;124363;1099;104613;-79